Time;durP1;ratioP1;P1;durP2;ratioP2;P2;SDS_P1;SDS_P2;PMS_P1;PMS_P2;Temp;Humidity;BMP_temperature;BMP_pressure;BME280_temperature;BME280_humidity;BME280_pressure;Samples;Min_cycle;Max_cycle;Signal;HPM_P1;HPM_P2
2022/02/24 00:00:26;;;;;;;28.98;10.65;;;;;;;3.25;57.46;100801.63;5065572;28;20051;-77
2022/02/24 00:02:53;;;;;;;33.00;12.05;;;;;;;3.21;57.51;100793.97;5067115;28;20045;-79
2022/02/24 00:05:21;;;;;;;37.70;14.25;;;;;;;3.20;57.58;100798.31;5064126;28;20468;-77
2022/02/24 00:07:51;;;;;;;40.40;14.57;;;;;;;3.17;57.53;100803.66;5064515;28;20132;-76
2022/02/24 00:10:20;;;;;;;26.42;13.85;;;;;;;3.15;57.77;100800.25;5063691;28;20048;-76
2022/02/24 00:12:48;;;;;;;26.95;12.75;;;;;;;3.15;57.70;100802.88;5064280;28;20051;-75
2022/02/24 00:15:15;;;;;;;35.78;13.80;;;;;;;3.14;57.69;100803.75;5063920;28;20055;-76
2022/02/24 00:17:46;;;;;;;28.25;12.63;;;;;;;3.13;57.78;100798.59;5063626;28;20040;-75
2022/02/24 00:20:14;;;;;;;33.67;11.80;;;;;;;3.08;57.77;100796.13;5065000;28;20051;-75
2022/02/24 00:22:42;;;;;;;28.17;12.32;;;;;;;3.10;57.96;100790.84;5064399;28;20601;-77
2022/02/24 00:25:09;;;;;;;37.15;12.68;;;;;;;3.10;57.91;100793.44;5065594;28;20058;-76
2022/02/24 00:27:36;;;;;;;39.00;13.52;;;;;;;3.10;57.86;100796.94;5064673;28;20044;-76
2022/02/24 00:30:06;;;;;;;32.22;13.43;;;;;;;3.11;58.16;100792.56;5064464;28;20538;-76
2022/02/24 00:32:33;;;;;;;26.25;11.93;;;;;;;3.12;57.94;100799.50;5064016;28;20754;-76
2022/02/24 00:35:01;;;;;;;36.70;13.60;;;;;;;3.11;58.10;100788.19;5067642;28;20048;-75
2022/02/24 00:37:29;;;;;;;32.97;11.82;;;;;;;3.11;57.89;100788.19;5069136;28;20082;-79
2022/02/24 00:39:56;;;;;;;32.33;13.63;;;;;;;3.11;58.17;100803.84;5068422;28;20439;-77
2022/02/24 00:42:23;;;;;;;31.08;14.40;;;;;;;3.10;58.25;100796.94;5068158;28;20053;-75
2022/02/24 00:44:51;;;;;;;34.35;14.15;;;;;;;3.09;58.26;100794.38;5069463;28;20532;-76
2022/02/24 00:47:18;;;;;;;41.50;13.13;;;;;;;3.05;58.47;100785.78;5069102;28;20105;-78
2022/02/24 00:49:45;;;;;;;30.30;12.15;;;;;;;3.06;58.37;100788.34;5068485;28;20091;-76
2022/02/24 00:52:13;;;;;;;33.25;14.77;;;;;;;3.02;58.42;100789.34;5069894;28;20447;-76
2022/02/24 00:54:40;;;;;;;23.95;12.55;;;;;;;2.96;58.47;100802.59;5067296;28;20051;-78
2022/02/24 00:57:07;;;;;;;26.88;12.07;;;;;;;2.93;58.47;100802.69;5066756;28;20553;-77
2022/02/24 00:59:34;;;;;;;25.52;12.70;;;;;;;2.93;58.60;100799.22;5068954;28;20052;-77
2022/02/24 01:02:01;;;;;;;30.75;14.20;;;;;;;2.95;58.46;100807.84;5068750;28;20049;-78
2022/02/24 01:04:28;;;;;;;34.70;13.45;;;;;;;2.96;58.61;100801.75;5068830;28;20095;-76
2022/02/24 01:06:55;;;;;;;28.88;14.93;;;;;;;2.95;58.69;100800.03;5068895;28;20374;-81
2022/02/24 01:09:24;;;;;;;28.77;12.77;;;;;;;2.95;58.54;100800.03;5069360;28;20044;-77
2022/02/24 01:11:52;;;;;;;29.02;11.32;;;;;;;2.95;58.67;100793.03;5071107;28;20079;-77
2022/02/24 01:14:19;;;;;;;21.42;12.88;;;;;;;2.95;58.76;100797.41;5052389;28;20135;-77
2022/02/24 01:16:46;;;;;;;32.70;13.80;;;;;;;2.96;58.81;100804.34;5070404;28;20044;-77
2022/02/24 01:19:13;;;;;;;28.10;11.85;;;;;;;2.95;58.98;100793.03;5068423;28;20130;-77
2022/02/24 01:21:40;;;;;;;23.42;11.00;;;;;;;2.99;58.90;100801.63;5067129;28;20041;-77
2022/02/24 01:24:07;;;;;;;24.58;10.98;;;;;;;2.99;58.83;100794.69;5067951;28;20510;-75
2022/02/24 01:26:36;;;;;;;26.65;11.05;;;;;;;2.99;58.93;100799.03;5066482;28;20052;-76
2022/02/24 01:29:04;;;;;;;34.28;12.55;;;;;;;2.98;59.00;100789.50;5067906;28;20124;-75
2022/02/24 01:31:31;;;;;;;30.77;12.90;;;;;;;2.98;58.87;100789.50;5068011;28;20090;-78
2022/02/24 01:33:58;;;;;;;23.15;12.25;;;;;;;2.99;59.05;100788.59;5067924;28;20041;-76
2022/02/24 01:36:25;;;;;;;31.38;12.75;;;;;;;2.97;59.00;100793.88;5068049;28;20040;-78
2022/02/24 01:38:52;;;;;;;34.05;11.93;;;;;;;2.94;59.07;100791.34;5068285;28;20063;-75
2022/02/24 01:41:19;;;;;;;23.55;10.10;;;;;;;2.95;59.02;100789.59;5067740;28;20052;-76
2022/02/24 01:43:48;;;;;;;33.55;11.13;;;;;;;2.94;58.99;100785.28;5066028;28;20052;-79
2022/02/24 01:46:16;;;;;;;24.35;9.48;;;;;;;2.95;59.13;100784.38;5066736;28;20127;-76
2022/02/24 01:48:43;;;;;;;19.92;11.43;;;;;;;2.95;59.14;100781.75;5067275;28;20507;-76
2022/02/24 01:51:10;;;;;;;23.90;12.30;;;;;;;2.94;59.31;100780.91;5067565;28;20080;-79
2022/02/24 01:53:40;;;;;;;24.33;10.73;;;;;;;2.96;59.16;100775.66;5068150;28;20051;-78
2022/02/24 01:56:07;;;;;;;30.92;12.23;;;;;;;2.94;59.23;100769.63;5050805;28;20059;-77
2022/02/24 01:58:34;;;;;;;22.13;10.02;;;;;;;2.91;59.15;100770.56;5066495;28;20067;-77
2022/02/24 02:01:03;;;;;;;21.90;9.93;;;;;;;2.90;59.08;100773.22;5051661;28;20044;-78
2022/02/24 02:03:30;;;;;;;24.35;10.55;;;;;;;2.89;59.21;100768.94;5069029;28;20052;-77
2022/02/24 02:05:57;;;;;;;25.73;11.23;;;;;;;2.87;59.40;100768.97;5067692;28;20146;-78
2022/02/24 02:08:25;;;;;;;29.30;10.35;;;;;;;2.86;59.40;100768.13;5068668;28;20054;-78
2022/02/24 02:10:52;;;;;;;27.75;12.00;;;;;;;2.84;59.47;100764.69;5076907;28;20145;-77
2022/02/24 02:13:19;;;;;;;29.25;12.77;;;;;;;2.84;59.29;100769.91;5077598;28;20148;-78
2022/02/24 02:15:46;;;;;;;29.00;13.23;;;;;;;2.85;59.53;100765.56;5072125;28;20084;-75
2022/02/24 02:18:15;;;;;;;32.47;12.10;;;;;;;2.84;59.38;100763.84;5070945;28;20050;-79
2022/02/24 02:20:43;;;;;;;29.90;13.73;;;;;;;2.80;59.36;100760.47;5071713;28;20055;-77
2022/02/24 02:23:10;;;;;;;21.38;12.70;;;;;;;2.78;59.44;100767.50;5084944;28;20242;-76
2022/02/24 02:25:37;;;;;;;35.30;16.33;;;;;;;2.76;59.43;100760.66;5087906;28;20345;-75
2022/02/24 02:28:05;;;;;;;29.38;14.48;;;;;;;2.76;59.65;100758.03;5086886;28;20061;-76
2022/02/24 02:30:32;;;;;;;36.33;14.38;;;;;;;2.72;59.60;100765.13;5089239;28;20062;-76
2022/02/24 02:32:59;;;;;;;32.65;14.63;;;;;;;2.70;59.66;100756.44;5089266;28;20032;-76
2022/02/24 02:35:27;;;;;;;36.83;14.80;;;;;;;2.70;59.71;100766.88;5084590;28;20076;-76
2022/02/24 02:37:57;;;;;;;38.72;14.45;;;;;;;2.67;59.63;100760.03;5080538;28;20063;-77
2022/02/24 02:40:24;;;;;;;28.48;14.32;;;;;;;2.66;59.79;100754.84;5090760;28;20068;-76
2022/02/24 02:42:51;;;;;;;30.90;13.98;;;;;;;2.65;59.63;100750.56;5091631;28;20056;-77
2022/02/24 02:45:19;;;;;;;33.28;14.57;;;;;;;2.64;59.88;100747.06;5091221;28;20041;-77
2022/02/24 02:47:46;;;;;;;27.65;14.63;;;;;;;2.63;59.75;100745.38;5092413;28;20144;-75
2022/02/24 02:50:14;;;;;;;36.80;15.50;;;;;;;2.63;59.76;100750.59;5091483;28;20068;-76
2022/02/24 02:52:41;;;;;;;36.00;15.20;;;;;;;2.63;59.74;100740.16;5071511;28;20104;-77
2022/02/24 02:55:12;;;;;;;28.90;16.25;;;;;;;2.61;60.06;100738.50;5091083;28;20072;-77
2022/02/24 02:57:39;;;;;;;38.28;15.98;;;;;;;2.60;59.80;100750.69;5090111;28;20068;-77
2022/02/24 03:00:09;;;;;;;28.13;14.35;;;;;;;2.61;59.95;100746.31;5091688;28;20040;-79
2022/02/24 03:02:36;;;;;;;29.88;15.02;;;;;;;2.58;60.00;100742.06;5091192;28;20040;-77
2022/02/24 03:05:03;;;;;;;37.58;17.15;;;;;;;2.55;59.89;100747.38;5086587;28;20045;-76
2022/02/24 03:07:30;;;;;;;29.00;14.45;;;;;;;2.53;59.95;100743.13;5074916;28;20389;-77
2022/02/24 03:09:57;;;;;;;32.13;14.55;;;;;;;2.52;60.11;100739.66;5070631;28;20145;-78
2022/02/24 03:12:26;;;;;;;37.20;15.77;;;;;;;2.50;60.26;100746.66;5070203;28;20051;-73
2022/02/24 03:14:53;;;;;;;35.50;15.13;;;;;;;2.50;60.16;100749.25;5069153;28;20058;-74
2022/02/24 03:17:22;;;;;;;33.92;13.82;;;;;;;2.46;60.09;100738.06;5066963;28;20170;-75
2022/02/24 03:19:49;;;;;;;36.30;15.70;;;;;;;2.46;60.32;100742.44;5068481;28;20075;-77
2022/02/24 03:22:16;;;;;;;31.55;14.60;;;;;;;2.45;60.34;100739.00;5069164;28;20048;-76
2022/02/24 03:24:43;;;;;;;29.05;13.77;;;;;;;2.44;60.39;100731.22;5074975;28;20151;-75
2022/02/24 03:27:10;;;;;;;33.72;15.57;;;;;;;2.46;60.08;100738.06;5069368;28;20052;-77
2022/02/24 03:29:39;;;;;;;31.23;14.65;;;;;;;2.44;60.27;100729.44;5071790;28;20146;-77
2022/02/24 03:32:06;;;;;;;34.78;13.57;;;;;;;2.47;60.60;100731.97;5087576;28;20579;-76
2022/02/24 03:34:34;;;;;;;28.70;14.38;;;;;;;2.48;60.50;100733.69;5087939;28;20537;-76
2022/02/24 03:37:01;;;;;;;34.85;17.45;;;;;;;2.48;60.31;100736.31;5087396;28;20047;-76
2022/02/24 03:39:28;;;;;;;43.88;17.55;;;;;;;2.46;60.64;100732.00;5087268;28;20104;-75
2022/02/24 03:41:56;;;;;;;31.00;15.38;;;;;;;2.46;60.55;100740.69;5087398;28;20048;-76
2022/02/24 03:44:22;;;;;;;33.58;13.85;;;;;;;2.46;60.43;100732.84;5086671;28;20054;-75
2022/02/24 03:46:51;;;;;;;40.13;14.85;;;;;;;2.48;60.45;100725.88;5087057;28;20123;-77
2022/02/24 03:49:18;;;;;;;31.42;14.35;;;;;;;2.48;60.52;100731.09;5088181;28;20112;-78
2022/02/24 03:51:45;;;;;;;38.05;15.90;;;;;;;2.49;60.45;100732.78;5088230;28;20140;-76
2022/02/24 03:54:12;;;;;;;25.95;15.45;;;;;;;2.48;60.71;100728.47;5087417;28;20050;-76
2022/02/24 03:56:39;;;;;;;33.17;15.25;;;;;;;2.46;60.64;100738.06;5085393;28;20047;-77
2022/02/24 03:59:06;;;;;;;36.08;14.85;;;;;;;2.46;60.59;100732.00;5086752;28;20051;-76
2022/02/24 04:01:34;;;;;;;31.13;14.48;;;;;;;2.45;60.63;100741.59;5087180;28;20127;-76
2022/02/24 04:04:03;;;;;;;31.20;14.07;;;;;;;2.44;60.75;100737.28;5087199;28;20056;-78
2022/02/24 04:06:30;;;;;;;27.65;16.25;;;;;;;2.44;60.59;100732.06;5070050;28;20050;-77
2022/02/24 04:08:57;;;;;;;36.53;16.00;;;;;;;2.43;60.64;100729.50;5087012;28;20044;-76
2022/02/24 04:11:24;;;;;;;34.63;13.10;;;;;;;2.42;60.93;100727.81;5087409;28;20058;-76
2022/02/24 04:13:51;;;;;;;37.30;17.20;;;;;;;2.43;60.91;100732.09;5087610;28;20044;-74
2022/02/24 04:16:18;;;;;;;31.20;14.35;;;;;;;2.41;60.68;100728.69;5087707;28;20047;-78
2022/02/24 04:18:46;;;;;;;33.28;13.73;;;;;;;2.40;61.00;100716.56;5088357;28;20475;-75
2022/02/24 04:21:15;;;;;;;30.20;13.95;;;;;;;2.42;60.87;100720.84;5087267;28;20123;-76
2022/02/24 04:23:42;;;;;;;34.90;15.60;;;;;;;2.40;60.79;100720.03;5087416;28;20146;-76
2022/02/24 04:26:10;;;;;;;33.75;14.85;;;;;;;2.39;60.92;100720.91;5068909;28;20048;-77
2022/02/24 04:28:38;;;;;;;26.77;13.98;;;;;;;2.38;61.01;100721.00;5085350;28;20044;-76
2022/02/24 04:31:05;;;;;;;28.00;14.13;;;;;;;2.38;61.19;100711.41;5087894;28;20147;-78
2022/02/24 04:33:32;;;;;;;33.72;15.38;;;;;;;2.38;61.15;100710.56;5086969;28;20054;-74
2022/02/24 04:35:59;;;;;;;34.92;13.93;;;;;;;2.37;60.89;100709.69;5086701;28;20081;-77
2022/02/24 04:38:27;;;;;;;32.60;13.43;;;;;;;2.37;60.99;100708.84;5087378;28;20071;-77
2022/02/24 04:40:55;;;;;;;44.38;15.00;;;;;;;2.36;61.30;100699.31;5086815;28;20040;-76
2022/02/24 04:43:22;;;;;;;27.00;13.60;;;;;;;2.37;61.04;100711.44;5087356;28;20036;-75
2022/02/24 04:45:50;;;;;;;31.92;14.65;;;;;;;2.39;61.27;100704.44;5086545;28;20052;-76
2022/02/24 04:48:18;;;;;;;26.88;12.52;;;;;;;2.36;61.08;100710.59;5086492;28;20433;-75
2022/02/24 04:50:46;;;;;;;28.30;13.23;;;;;;;2.36;61.23;100709.72;5087249;28;20128;-76
2022/02/24 04:53:13;;;;;;;32.28;13.93;;;;;;;2.35;61.06;100713.25;5085084;28;20774;-77
2022/02/24 04:55:44;;;;;;;37.15;14.20;;;;;;;2.31;61.26;100712.50;5084559;28;20052;-78
2022/02/24 04:58:11;;;;;;;29.15;14.43;;;;;;;2.28;61.21;100713.44;5084188;28;20127;-74
2022/02/24 05:00:38;;;;;;;26.15;13.10;;;;;;;2.25;61.22;100710.06;5085867;28;20151;-76
2022/02/24 05:03:05;;;;;;;30.00;13.93;;;;;;;2.22;61.45;100708.41;5086258;28;20657;-76
2022/02/24 05:05:33;;;;;;;29.98;12.95;;;;;;;2.20;61.42;100711.97;5086294;28;20345;-76
2022/02/24 05:08:00;;;;;;;27.75;13.80;;;;;;;2.20;61.46;100711.97;5087924;28;20048;-77
2022/02/24 05:10:27;;;;;;;36.42;14.65;;;;;;;2.18;61.37;100704.22;5086719;28;20044;-77
2022/02/24 05:12:56;;;;;;;26.65;13.35;;;;;;;2.16;61.27;100707.75;5087050;28;20522;-76
2022/02/24 05:15:23;;;;;;;27.80;12.43;;;;;;;2.15;61.54;100701.69;5085262;28;20070;-75
2022/02/24 05:17:50;;;;;;;32.97;13.68;;;;;;;2.14;61.43;100699.13;5086724;28;20044;-75
2022/02/24 05:20:18;;;;;;;32.35;14.95;;;;;;;2.14;61.51;100701.72;5089031;28;20062;-75
2022/02/24 05:22:45;;;;;;;31.33;14.93;;;;;;;2.13;61.43;100702.66;5091910;28;20055;-76
2022/02/24 05:25:14;;;;;;;33.55;13.40;;;;;;;2.10;61.61;100703.56;5093549;28;20562;-76
2022/02/24 05:27:42;;;;;;;26.40;13.60;;;;;;;2.08;61.44;100710.59;5092184;28;20358;-75
2022/02/24 05:30:12;;;;;;;30.95;12.73;;;;;;;2.08;61.70;100710.59;5091842;28;20044;-78
2022/02/24 05:32:40;;;;;;;30.55;13.30;;;;;;;2.05;61.69;100708.94;5089937;28;20126;-75
2022/02/24 05:35:08;;;;;;;23.08;12.10;;;;;;;2.04;61.58;100709.81;5091084;28;20040;-77
2022/02/24 05:37:35;;;;;;;28.40;12.40;;;;;;;2.04;61.44;100708.97;5090785;28;20130;-76
2022/02/24 05:40:05;;;;;;;30.05;15.48;;;;;;;2.03;61.69;100715.91;5091152;28;20040;-74
2022/02/24 05:42:32;;;;;;;31.92;13.65;;;;;;;2.06;61.64;100715.00;5091327;28;20119;-75
2022/02/24 05:44:59;;;;;;;25.75;14.88;;;;;;;2.08;61.69;100719.25;5090492;28;20097;-73
2022/02/24 05:47:28;;;;;;;27.60;14.82;;;;;;;2.08;61.71;100721.84;5087173;28;20075;-77
2022/02/24 05:49:55;;;;;;;31.95;15.98;;;;;;;2.12;61.55;100717.41;5091360;28;20225;-78
2022/02/24 05:52:22;;;;;;;26.77;13.75;;;;;;;2.14;61.42;100722.56;5091445;28;20048;-76
2022/02/24 05:54:52;;;;;;;29.42;13.25;;;;;;;2.19;61.80;100723.28;5091247;28;20056;-79
2022/02/24 05:57:19;;;;;;;40.53;14.00;;;;;;;2.21;61.63;100727.53;5090340;28;20399;-74
2022/02/24 05:59:46;;;;;;;34.70;13.85;;;;;;;2.26;61.63;100724.81;5074631;28;20044;-81
2022/02/24 06:02:13;;;;;;;32.53;13.43;;;;;;;2.29;61.58;100717.75;5092216;28;20104;-74
2022/02/24 06:04:41;;;;;;;27.67;14.45;;;;;;;2.35;61.54;100729.75;5090958;28;20177;-75
2022/02/24 06:07:08;;;;;;;33.22;13.73;;;;;;;2.39;61.47;100720.91;5087990;28;20517;-74
2022/02/24 06:09:35;;;;;;;35.28;14.93;;;;;;;2.43;61.59;100719.94;5087421;28;20127;-74
2022/02/24 06:12:02;;;;;;;30.30;15.55;;;;;;;2.48;61.40;100725.00;5087781;28;20250;-74
2022/02/24 06:14:29;;;;;;;33.05;14.98;;;;;;;2.54;61.39;100717.00;5086863;28;20058;-75
2022/02/24 06:16:58;;;;;;;29.50;13.15;;;;;;;2.60;61.54;100718.56;5088127;28;20048;-76
2022/02/24 06:19:25;;;;;;;33.63;14.30;;;;;;;2.66;61.33;100713.13;5087402;28;20050;-78
2022/02/24 06:21:54;;;;;;;33.58;13.88;;;;;;;2.73;61.39;100719.84;5069466;28;20048;-83
2022/02/24 06:24:21;;;;;;;38.40;17.40;;;;;;;2.76;61.48;100711.94;5070754;28;20055;-79
2022/02/24 06:26:48;;;;;;;33.90;15.85;;;;;;;2.81;61.33;100714.38;5090223;28;20044;-77
2022/02/24 06:29:15;;;;;;;33.30;14.25;;;;;;;2.89;61.14;100714.16;5089138;28;20080;-75
2022/02/24 06:31:43;;;;;;;40.65;15.55;;;;;;;2.93;61.28;100711.34;5089398;28;20136;-75
2022/02/24 06:34:10;;;;;;;29.90;13.75;;;;;;;2.99;61.27;100700.75;5088554;28;20048;-77
2022/02/24 06:36:37;;;;;;;31.58;15.50;;;;;;;3.06;61.01;100699.63;5071745;28;20055;-76
2022/02/24 06:39:06;;;;;;;27.20;14.35;;;;;;;3.13;61.23;100700.25;5087673;28;20101;-76
2022/02/24 06:41:33;;;;;;;30.40;15.98;;;;;;;3.21;61.00;100706.06;5086466;28;20476;-77
2022/02/24 06:44:00;;;;;;;35.33;12.93;;;;;;;3.27;61.04;100693.72;5086103;28;20062;-76
2022/02/24 06:46:27;;;;;;;28.20;14.60;;;;;;;3.33;60.90;100696.97;5086870;28;20082;-75
2022/02/24 06:48:54;;;;;;;31.10;14.20;;;;;;;3.40;60.83;100697.56;5086675;28;20044;-75
2022/02/24 06:51:21;;;;;;;25.27;12.73;;;;;;;3.50;60.66;100687.66;5086659;28;20048;-76
2022/02/24 06:53:48;;;;;;;23.10;12.80;;;;;;;3.58;60.63;100694.31;5088440;28;20051;-77
2022/02/24 06:56:17;;;;;;;23.42;13.13;;;;;;;3.65;60.78;100684.47;5085949;28;20040;-76
2022/02/24 06:58:44;;;;;;;38.03;14.82;;;;;;;3.73;60.58;100689.44;5084600;28;20048;-77
2022/02/24 07:01:11;;;;;;;27.15;12.75;;;;;;;3.82;60.40;100684.72;5085854;28;20321;-77
2022/02/24 07:03:38;;;;;;;34.28;13.05;;;;;;;3.94;60.36;100685.16;5085714;28;20127;-77
2022/02/24 07:06:05;;;;;;;24.73;12.50;;;;;;;4.07;60.14;100685.53;5085755;28;20692;-75
2022/02/24 07:08:32;;;;;;;26.60;13.48;;;;;;;4.16;60.02;100680.81;5084405;28;20044;-78
2022/02/24 07:10:59;;;;;;;29.05;13.10;;;;;;;4.23;59.91;100676.19;5085478;28;20108;-76
2022/02/24 07:13:28;;;;;;;21.63;12.02;;;;;;;4.29;59.89;100685.56;5085817;28;20079;-77
2022/02/24 07:15:55;;;;;;;25.02;11.80;;;;;;;4.32;59.81;100674.97;5084478;28;20044;-75
2022/02/24 07:18:22;;;;;;;24.42;11.70;;;;;;;4.39;59.63;100679.91;5085562;28;20063;-73
2022/02/24 07:20:49;;;;;;;28.85;12.75;;;;;;;4.48;59.57;100672.59;5085997;28;20075;-76
2022/02/24 07:23:16;;;;;;;35.15;12.77;;;;;;;4.56;59.62;100667.91;5086918;28;20757;-76
2022/02/24 07:25:43;;;;;;;20.77;12.05;;;;;;;4.64;59.54;100660.59;5084976;28;20087;-77
2022/02/24 07:28:10;;;;;;;32.85;13.23;;;;;;;4.75;59.26;100663.63;5083865;28;20555;-76
2022/02/24 07:30:38;;;;;;;26.95;13.02;;;;;;;4.85;59.20;100652.78;5085249;28;20048;-78
2022/02/24 07:33:05;;;;;;;26.75;14.77;;;;;;;4.95;58.91;100657.56;5085512;28;20618;-76
2022/02/24 07:35:33;;;;;;;28.20;13.52;;;;;;;5.08;58.83;100654.41;5085612;28;20050;-77
2022/02/24 07:38:00;;;;;;;32.28;12.65;;;;;;;5.16;58.71;100660.16;5087273;28;20044;-76
2022/02/24 07:40:27;;;;;;;19.33;11.45;;;;;;;5.27;58.47;100657.91;5089958;28;20108;-75
2022/02/24 07:42:54;;;;;;;25.27;13.10;;;;;;;5.38;58.41;100652.19;5088238;28;20131;-77
2022/02/24 07:45:21;;;;;;;27.60;12.63;;;;;;;5.50;58.25;100656.88;5085383;28;20056;-77
2022/02/24 07:47:49;;;;;;;22.10;11.10;;;;;;;5.57;58.15;100651.38;5086990;28;20135;-79
2022/02/24 07:50:17;;;;;;;22.88;12.88;;;;;;;5.68;57.97;100651.75;5086735;28;20346;-77
2022/02/24 07:52:45;;;;;;;21.83;10.77;;;;;;;5.71;57.67;100655.06;5084308;28;20631;-77
2022/02/24 07:55:14;;;;;;;28.58;12.27;;;;;;;5.74;57.52;100654.06;5085898;28;20040;-77
2022/02/24 07:57:42;;;;;;;24.70;11.80;;;;;;;5.85;57.38;100646.59;5083452;28;20423;-76
2022/02/24 08:00:13;;;;;;;23.45;10.90;;;;;;;5.92;57.20;100636.63;5083816;28;20048;-75
2022/02/24 08:02:40;;;;;;;20.60;12.80;;;;;;;5.96;57.04;100637.38;5084209;28;20131;-75
2022/02/24 08:05:10;;;;;;;19.20;10.82;;;;;;;6.03;56.93;100634.41;5082398;28;20044;-76
2022/02/24 08:07:37;;;;;;;19.95;9.73;;;;;;;6.12;56.73;100628.72;5083712;28;20043;-77
2022/02/24 08:10:05;;;;;;;19.17;10.00;;;;;;;6.20;56.54;100622.25;5083753;28;20683;-76
2022/02/24 08:12:42;;;;;;;22.65;9.75;;;;;;;6.30;56.28;100611.25;5082937;28;20552;-75
2022/02/24 08:15:11;;;;;;;19.73;8.70;;;;;;;6.37;56.07;100618.81;5082745;28;20040;-75
2022/02/24 08:17:39;;;;;;;14.43;7.93;;;;;;;6.46;55.86;100613.09;5083397;28;20047;-76
2022/02/24 08:20:09;;;;;;;19.15;10.50;;;;;;;6.56;55.62;100614.34;5082651;28;20044;-75
2022/02/24 08:22:37;;;;;;;20.25;9.63;;;;;;;6.69;55.46;100604.06;5083712;28;20119;-75
2022/02/24 08:25:05;;;;;;;18.08;10.23;;;;;;;6.79;55.25;100607.94;5082461;28;20722;-76
2022/02/24 08:27:34;;;;;;;17.45;8.90;;;;;;;6.96;54.73;100600.97;5080349;28;20459;-74
2022/02/24 08:30:02;;;;;;;17.52;8.77;;;;;;;7.10;54.64;100602.88;5083638;28;20044;-74
2022/02/24 08:32:29;;;;;;;16.60;8.20;;;;;;;7.19;54.53;100594.50;5088606;28;20047;-75
2022/02/24 08:34:58;;;;;;;22.13;9.98;;;;;;;7.31;54.04;100587.75;5090497;28;20392;-76
2022/02/24 08:37:27;;;;;;;19.85;9.40;;;;;;;7.42;54.09;100590.66;5090122;28;20044;-75
2022/02/24 08:39:54;;;;;;;17.58;8.10;;;;;;;7.54;53.59;100583.88;5084546;28;20135;-75
2022/02/24 08:42:25;;;;;;;17.13;8.05;;;;;;;7.62;53.30;100577.28;5064307;28;20055;-74
2022/02/24 08:44:53;;;;;;;14.38;6.95;;;;;;;7.77;53.13;100574.72;5081725;28;20056;-75
2022/02/24 08:47:21;;;;;;;19.35;7.57;;;;;;;7.91;52.88;100563.44;5083584;28;20048;-75
2022/02/24 08:49:48;;;;;;;18.65;8.70;;;;;;;8.14;52.28;100562.97;5086056;28;20502;-75
2022/02/24 08:52:16;;;;;;;14.18;7.18;;;;;;;8.46;52.26;100556.81;5082889;28;20100;-76
2022/02/24 08:54:46;;;;;;;8.63;5.53;;;;;;;8.85;51.46;100552.75;5082719;28;20123;-75
2022/02/24 08:57:13;;;;;;;16.85;7.25;;;;;;;9.13;50.82;100551.91;5086271;28;20087;-76
2022/02/24 08:59:40;;;;;;;15.32;7.47;;;;;;;9.45;50.16;100544.59;5088096;28;20216;-76
2022/02/24 09:02:08;;;;;;;16.73;8.35;;;;;;;9.65;49.68;100538.09;5086695;28;20040;-75
2022/02/24 09:04:35;;;;;;;17.67;7.30;;;;;;;9.92;49.38;100539.88;5086455;28;20127;-75
2022/02/24 09:07:02;;;;;;;17.95;7.53;;;;;;;10.05;49.02;100535.50;5085964;28;20247;-76
2022/02/24 09:09:29;;;;;;;16.58;6.97;;;;;;;10.21;48.48;100530.06;5086087;28;20040;-76
2022/02/24 09:11:57;;;;;;;19.40;9.52;;;;;;;10.29;48.06;100509.25;5086930;28;20044;-75
2022/02/24 09:14:25;;;;;;;22.70;8.05;;;;;;;10.47;47.73;100511.63;5086584;28;20117;-75
2022/02/24 09:16:52;;;;;;;17.23;7.65;;;;;;;10.71;47.14;100507.31;5086805;28;20052;-77
2022/02/24 09:19:19;;;;;;;18.08;8.00;;;;;;;10.84;46.73;100504.66;5087509;28;20079;-75
2022/02/24 09:21:46;;;;;;;14.70;7.95;;;;;;;10.94;46.54;100496.09;5086836;28;20051;-75
2022/02/24 09:24:14;;;;;;;17.73;8.23;;;;;;;11.10;46.14;100489.59;5087055;28;20040;-74
2022/02/24 09:26:42;;;;;;;19.42;8.30;;;;;;;11.32;46.02;100490.72;5087957;28;20507;-75
2022/02/24 09:29:11;;;;;;;18.70;8.75;;;;;;;11.55;45.63;100481.13;5088086;28;20117;-76
2022/02/24 09:31:38;;;;;;;21.05;9.50;;;;;;;11.81;45.16;100481.88;5086628;28;20048;-75
2022/02/24 09:34:05;;;;;;;18.10;8.57;;;;;;;12.00;44.81;100475.22;5087371;28;20048;-75
2022/02/24 09:36:32;;;;;;;14.02;9.43;;;;;;;12.09;44.24;100471.06;5087494;28;20048;-75
2022/02/24 09:38:59;;;;;;;14.23;8.30;;;;;;;12.22;43.91;100461.22;5088460;28;20091;-74
2022/02/24 09:41:28;;;;;;;16.02;7.22;;;;;;;12.14;43.88;100455.66;5087609;28;20044;-74
2022/02/24 09:43:55;;;;;;;15.15;8.63;;;;;;;12.05;43.18;100452.75;5087868;28;20062;-75
2022/02/24 09:46:26;;;;;;;16.52;8.27;;;;;;;12.03;43.12;100457.31;5088242;28;20044;-74
2022/02/24 09:48:55;;;;;;;14.13;8.18;;;;;;;11.98;42.80;100448.03;5087606;28;20140;-76
2022/02/24 09:51:22;;;;;;;10.73;5.85;;;;;;;11.92;42.80;100437.88;5088091;28;20203;-75
2022/02/24 09:53:50;;;;;;;12.88;6.97;;;;;;;12.05;42.69;100442.16;5089349;28;20059;-75
2022/02/24 09:56:18;;;;;;;12.05;5.63;;;;;;;12.10;42.36;100435.66;5092155;28;20578;-73
2022/02/24 09:58:46;;;;;;;14.50;5.93;;;;;;;12.02;42.41;100437.09;5093285;28;20628;-76
2022/02/24 10:01:15;;;;;;;13.63;6.50;;;;;;;11.92;42.01;100428.16;5099761;28;20043;-76
2022/02/24 10:03:46;;;;;;;16.35;6.28;;;;;;;11.91;42.04;100423.00;5098423;28;20373;-74
2022/02/24 10:06:14;;;;;;;21.98;8.30;;;;;;;11.91;41.79;100415.88;5102710;28;20044;-75
2022/02/24 10:08:43;;;;;;;17.63;9.48;;;;;;;12.01;41.92;100408.94;5100252;28;20072;-76
2022/02/24 10:11:19;;;;;;;15.52;8.13;;;;;;;12.21;41.89;100390.69;5097738;28;20827;-74
2022/02/24 10:14:05;;;;;;;17.42;6.32;;;;;;;12.17;41.57;100398.03;5095523;28;20070;-75
2022/02/24 10:16:51;;;;;;;14.68;6.60;;;;;;;12.04;41.42;100394.63;5094556;28;20044;-76
2022/02/24 10:19:26;;;;;;;10.57;4.43;;;;;;;11.96;41.80;100384.63;5095883;28;20064;-76
2022/02/24 10:22:08;;;;;;;16.05;6.63;;;;;;;11.98;41.63;100381.84;5096832;28;20118;-75
2022/02/24 10:24:34;;;;;;;12.88;6.22;;;;;;;12.06;41.12;100379.44;5102209;28;20200;-75
2022/02/24 10:27:17;;;;;;;11.82;6.20;;;;;;;12.18;41.15;100362.63;5099582;28;20108;-77
2022/02/24 10:30:02;;;;;;;19.95;6.95;;;;;;;12.24;41.09;100364.81;5100906;28;20328;-77
2022/02/24 10:32:34;;;;;;;20.63;6.13;;;;;;;12.26;40.82;100350.59;5101885;28;20046;-76
2022/02/24 10:35:24;;;;;;;10.13;5.20;;;;;;;12.28;40.65;100356.59;5099889;28;20158;-76
2022/02/24 10:37:56;;;;;;;14.07;6.30;;;;;;;12.30;40.31;100342.31;5100892;28;20694;-75
2022/02/24 10:40:24;;;;;;;14.30;5.45;;;;;;;12.32;40.28;100348.31;5099995;28;20103;-76
2022/02/24 10:42:51;;;;;;;18.77;6.28;;;;;;;12.35;40.18;100339.28;5099870;28;20083;-74
2022/02/24 10:45:25;;;;;;;13.05;6.15;;;;;;;12.35;40.07;100342.78;5099063;28;20656;-76
2022/02/24 10:47:57;;;;;;;13.02;6.32;;;;;;;12.48;39.94;100331.19;5098562;28;20039;-76
2022/02/24 10:50:45;;;;;;;10.25;6.30;;;;;;;12.45;39.86;100331.47;5098068;28;20047;-76
2022/02/24 10:53:12;;;;;;;14.57;6.65;;;;;;;12.51;39.70;100325.66;5084398;28;20555;-76
2022/02/24 10:55:53;;;;;;;9.40;4.70;;;;;;;12.56;39.73;100321.69;5087147;28;20068;-76
2022/02/24 10:58:21;;;;;;;14.23;5.32;;;;;;;12.59;39.51;100316.16;5081265;28;20703;-77
2022/02/24 11:00:48;;;;;;;14.80;5.32;;;;;;;12.71;39.24;100310.81;5083743;28;20142;-74
2022/02/24 11:03:15;;;;;;;12.55;5.07;;;;;;;12.68;39.48;100306.63;5083374;28;20119;-74
2022/02/24 11:05:44;;;;;;;12.90;6.85;;;;;;;12.74;39.74;100310.59;5063789;28;20048;-75
2022/02/24 11:08:13;;;;;;;13.40;4.68;;;;;;;12.78;39.48;100301.41;5082903;28;20048;-75
2022/02/24 11:10:40;;;;;;;12.75;5.07;;;;;;;12.77;38.84;100295.28;5083279;28;20135;-74
2022/02/24 11:13:07;;;;;;;9.50;4.90;;;;;;;12.69;39.20;100294.19;5084299;28;20087;-75
2022/02/24 11:15:34;;;;;;;9.55;5.65;;;;;;;12.73;38.95;100279.72;5083901;28;20139;-74
2022/02/24 11:18:02;;;;;;;12.43;6.68;;;;;;;12.77;39.09;100278.53;5084075;28;20048;-73
2022/02/24 11:20:30;;;;;;;15.85;5.97;;;;;;;12.80;38.77;100287.09;5082917;28;20088;-75